sensor_id;sensor_type;location;lat;lon;timestamp;P1;durP1;ratioP1;P2;durP2;ratioP2
3997;SDS011;61314;53.444;9.902;2023-07-31T00:00:04;8.70;;;2.50;;
3997;SDS011;61314;53.444;9.902;2023-07-31T00:02:32;12.00;;;2.70;;
3997;SDS011;61314;53.444;9.902;2023-07-31T00:04:59;15.47;;;2.33;;
3997;SDS011;61314;53.444;9.902;2023-07-31T00:07:26;7.97;;;3.00;;
3997;SDS011;61314;53.444;9.902;2023-07-31T00:09:53;5.70;;;2.17;;
3997;SDS011;61314;53.444;9.902;2023-07-31T00:12:22;5.07;;;2.17;;
3997;SDS011;61314;53.444;9.902;2023-07-31T00:14:49;7.60;;;3.30;;
3997;SDS011;61314;53.444;9.902;2023-07-31T00:17:17;7.10;;;2.63;;
3997;SDS011;61314;53.444;9.902;2023-07-31T00:19:44;3.67;;;2.20;;
3997;SDS011;61314;53.444;9.902;2023-07-31T00:22:12;5.77;;;2.67;;
3997;SDS011;61314;53.444;9.902;2023-07-31T00:24:39;7.37;;;2.70;;
3997;SDS011;61314;53.444;9.902;2023-07-31T00:27:06;8.50;;;2.30;;
3997;SDS011;61314;53.444;9.902;2023-07-31T00:29:33;7.57;;;2.77;;
3997;SDS011;61314;53.444;9.902;2023-07-31T00:32:00;6.50;;;3.13;;
3997;SDS011;61314;53.444;9.902;2023-07-31T00:34:27;12.23;;;2.90;;
3997;SDS011;61314;53.444;9.902;2023-07-31T00:36:55;12.57;;;3.00;;
3997;SDS011;61314;53.444;9.902;2023-07-31T00:39:22;3.73;;;2.40;;
3997;SDS011;61314;53.444;9.902;2023-07-31T00:41:49;5.03;;;2.00;;
3997;SDS011;61314;53.444;9.902;2023-07-31T00:44:16;7.60;;;2.30;;
3997;SDS011;61314;53.444;9.902;2023-07-31T00:46:44;5.90;;;2.97;;
3997;SDS011;61314;53.444;9.902;2023-07-31T00:49:11;8.93;;;3.10;;
3997;SDS011;61314;53.444;9.902;2023-07-31T00:51:38;7.90;;;3.07;;
3997;SDS011;61314;53.444;9.902;2023-07-31T00:54:05;7.77;;;2.97;;
3997;SDS011;61314;53.444;9.902;2023-07-31T00:56:33;9.17;;;3.03;;
3997;SDS011;61314;53.444;9.902;2023-07-31T00:59:00;6.27;;;2.93;;
3997;SDS011;61314;53.444;9.902;2023-07-31T01:01:27;5.87;;;2.70;;
3997;SDS011;61314;53.444;9.902;2023-07-31T01:03:54;11.83;;;3.20;;
3997;SDS011;61314;53.444;9.902;2023-07-31T01:06:40;11.87;;;3.23;;
3997;SDS011;61314;53.444;9.902;2023-07-31T01:09:19;6.83;;;2.90;;
3997;SDS011;61314;53.444;9.902;2023-07-31T01:11:48;5.40;;;3.20;;
3997;SDS011;61314;53.444;9.902;2023-07-31T01:14:18;7.17;;;3.00;;
3997;SDS011;61314;53.444;9.902;2023-07-31T01:16:45;8.83;;;2.87;;
3997;SDS011;61314;53.444;9.902;2023-07-31T01:19:12;7.43;;;3.77;;
3997;SDS011;61314;53.444;9.902;2023-07-31T01:21:53;5.37;;;2.77;;
3997;SDS011;61314;53.444;9.902;2023-07-31T01:24:28;6.77;;;2.53;;
3997;SDS011;61314;53.444;9.902;2023-07-31T01:27:04;4.47;;;3.30;;
3997;SDS011;61314;53.444;9.902;2023-07-31T01:29:35;5.73;;;3.03;;
3997;SDS011;61314;53.444;9.902;2023-07-31T01:32:05;6.47;;;3.50;;
3997;SDS011;61314;53.444;9.902;2023-07-31T01:34:33;8.47;;;3.10;;
3997;SDS011;61314;53.444;9.902;2023-07-31T01:37:01;5.30;;;3.67;;
3997;SDS011;61314;53.444;9.902;2023-07-31T01:39:28;12.30;;;3.63;;
3997;SDS011;61314;53.444;9.902;2023-07-31T01:41:55;6.63;;;3.30;;
3997;SDS011;61314;53.444;9.902;2023-07-31T01:44:22;3.23;;;2.93;;
3997;SDS011;61314;53.444;9.902;2023-07-31T01:46:49;9.10;;;3.60;;
3997;SDS011;61314;53.444;9.902;2023-07-31T01:49:16;5.77;;;3.60;;
3997;SDS011;61314;53.444;9.902;2023-07-31T01:51:43;5.90;;;3.00;;
3997;SDS011;61314;53.444;9.902;2023-07-31T01:54:11;10.03;;;4.00;;
3997;SDS011;61314;53.444;9.902;2023-07-31T01:56:38;7.87;;;3.40;;
3997;SDS011;61314;53.444;9.902;2023-07-31T01:59:05;4.27;;;3.10;;
3997;SDS011;61314;53.444;9.902;2023-07-31T02:01:32;4.67;;;3.10;;
3997;SDS011;61314;53.444;9.902;2023-07-31T02:03:59;9.17;;;4.00;;
3997;SDS011;61314;53.444;9.902;2023-07-31T02:06:26;5.40;;;3.70;;
3997;SDS011;61314;53.444;9.902;2023-07-31T02:08:54;7.50;;;3.13;;
3997;SDS011;61314;53.444;9.902;2023-07-31T02:11:21;6.80;;;4.00;;
3997;SDS011;61314;53.444;9.902;2023-07-31T02:13:48;6.03;;;3.70;;
3997;SDS011;61314;53.444;9.902;2023-07-31T02:16:15;10.00;;;3.40;;
3997;SDS011;61314;53.444;9.902;2023-07-31T02:18:42;11.30;;;4.30;;
3997;SDS011;61314;53.444;9.902;2023-07-31T02:21:09;7.33;;;3.20;;
3997;SDS011;61314;53.444;9.902;2023-07-31T02:23:36;4.03;;;2.90;;
3997;SDS011;61314;53.444;9.902;2023-07-31T02:26:03;5.70;;;3.97;;
3997;SDS011;61314;53.444;9.902;2023-07-31T02:28:30;9.40;;;4.00;;
3997;SDS011;61314;53.444;9.902;2023-07-31T02:30:57;5.87;;;3.90;;
3997;SDS011;61314;53.444;9.902;2023-07-31T02:33:25;5.37;;;2.90;;
3997;SDS011;61314;53.444;9.902;2023-07-31T02:35:52;5.40;;;4.47;;
3997;SDS011;61314;53.444;9.902;2023-07-31T02:38:20;10.17;;;3.97;;
3997;SDS011;61314;53.444;9.902;2023-07-31T02:40:47;7.07;;;3.73;;
3997;SDS011;61314;53.444;9.902;2023-07-31T02:43:14;5.70;;;3.57;;
3997;SDS011;61314;53.444;9.902;2023-07-31T02:45:41;6.90;;;3.07;;
3997;SDS011;61314;53.444;9.902;2023-07-31T02:48:08;7.40;;;4.90;;
3997;SDS011;61314;53.444;9.902;2023-07-31T02:50:36;11.37;;;4.63;;
3997;SDS011;61314;53.444;9.902;2023-07-31T02:53:03;6.57;;;3.23;;
3997;SDS011;61314;53.444;9.902;2023-07-31T02:55:30;10.57;;;4.20;;
3997;SDS011;61314;53.444;9.902;2023-07-31T02:57:57;6.57;;;3.47;;
3997;SDS011;61314;53.444;9.902;2023-07-31T03:00:25;3.33;;;3.03;;
3997;SDS011;61314;53.444;9.902;2023-07-31T03:02:52;4.57;;;3.23;;
3997;SDS011;61314;53.444;9.902;2023-07-31T03:05:19;7.43;;;3.63;;
3997;SDS011;61314;53.444;9.902;2023-07-31T03:07:46;5.87;;;3.20;;
3997;SDS011;61314;53.444;9.902;2023-07-31T03:10:13;4.50;;;3.23;;
3997;SDS011;61314;53.444;9.902;2023-07-31T03:12:40;6.40;;;3.57;;
3997;SDS011;61314;53.444;9.902;2023-07-31T03:15:08;3.80;;;3.40;;
3997;SDS011;61314;53.444;9.902;2023-07-31T03:17:35;5.53;;;3.77;;
3997;SDS011;61314;53.444;9.902;2023-07-31T03:20:02;5.97;;;4.53;;
3997;SDS011;61314;53.444;9.902;2023-07-31T03:22:30;4.93;;;3.90;;
3997;SDS011;61314;53.444;9.902;2023-07-31T03:24:57;3.80;;;3.50;;
3997;SDS011;61314;53.444;9.902;2023-07-31T03:27:24;6.10;;;3.90;;
3997;SDS011;61314;53.444;9.902;2023-07-31T03:29:51;5.10;;;3.73;;
3997;SDS011;61314;53.444;9.902;2023-07-31T03:32:18;4.37;;;4.00;;
3997;SDS011;61314;53.444;9.902;2023-07-31T03:34:45;5.47;;;4.10;;
3997;SDS011;61314;53.444;9.902;2023-07-31T03:37:12;4.73;;;3.83;;
3997;SDS011;61314;53.444;9.902;2023-07-31T03:39:40;10.67;;;3.90;;
3997;SDS011;61314;53.444;9.902;2023-07-31T03:42:07;4.47;;;3.63;;
3997;SDS011;61314;53.444;9.902;2023-07-31T03:44:34;6.10;;;4.00;;
3997;SDS011;61314;53.444;9.902;2023-07-31T03:47:01;8.83;;;4.30;;
3997;SDS011;61314;53.444;9.902;2023-07-31T03:49:28;4.00;;;3.80;;
3997;SDS011;61314;53.444;9.902;2023-07-31T03:51:56;7.80;;;4.27;;
3997;SDS011;61314;53.444;9.902;2023-07-31T03:54:23;5.43;;;4.93;;
3997;SDS011;61314;53.444;9.902;2023-07-31T03:56:50;8.20;;;4.67;;
3997;SDS011;61314;53.444;9.902;2023-07-31T03:59:17;6.57;;;3.90;;
3997;SDS011;61314;53.444;9.902;2023-07-31T04:01:44;4.27;;;3.87;;
3997;SDS011;61314;53.444;9.902;2023-07-31T04:04:11;9.50;;;4.90;;
3997;SDS011;61314;53.444;9.902;2023-07-31T04:06:38;3.90;;;3.70;;
3997;SDS011;61314;53.444;9.902;2023-07-31T04:09:06;3.87;;;3.57;;
3997;SDS011;61314;53.444;9.902;2023-07-31T04:11:33;4.30;;;3.47;;
3997;SDS011;61314;53.444;9.902;2023-07-31T04:14:00;4.03;;;3.63;;
3997;SDS011;61314;53.444;9.902;2023-07-31T04:16:27;5.70;;;3.57;;
3997;SDS011;61314;53.444;9.902;2023-07-31T04:18:54;5.90;;;4.10;;
3997;SDS011;61314;53.444;9.902;2023-07-31T04:21:21;3.57;;;3.23;;
3997;SDS011;61314;53.444;9.902;2023-07-31T04:23:48;3.97;;;3.50;;
3997;SDS011;61314;53.444;9.902;2023-07-31T04:26:15;3.50;;;3.20;;
3997;SDS011;61314;53.444;9.902;2023-07-31T04:28:42;5.37;;;3.83;;
3997;SDS011;61314;53.444;9.902;2023-07-31T04:31:09;4.97;;;3.83;;
3997;SDS011;61314;53.444;9.902;2023-07-31T04:33:37;3.50;;;3.20;;
3997;SDS011;61314;53.444;9.902;2023-07-31T04:36:04;4.53;;;3.40;;
3997;SDS011;61314;53.444;9.902;2023-07-31T04:38:31;5.70;;;3.47;;
3997;SDS011;61314;53.444;9.902;2023-07-31T04:40:58;4.70;;;3.87;;
3997;SDS011;61314;53.444;9.902;2023-07-31T04:43:25;3.33;;;3.13;;
3997;SDS011;61314;53.444;9.902;2023-07-31T04:45:52;3.97;;;3.57;;
3997;SDS011;61314;53.444;9.902;2023-07-31T04:48:20;6.67;;;3.70;;
3997;SDS011;61314;53.444;9.902;2023-07-31T04:50:47;5.67;;;3.60;;
3997;SDS011;61314;53.444;9.902;2023-07-31T04:53:14;4.17;;;3.40;;
3997;SDS011;61314;53.444;9.902;2023-07-31T04:55:41;4.03;;;3.00;;
3997;SDS011;61314;53.444;9.902;2023-07-31T04:58:08;3.80;;;3.60;;
3997;SDS011;61314;53.444;9.902;2023-07-31T05:00:35;3.77;;;3.47;;
3997;SDS011;61314;53.444;9.902;2023-07-31T05:03:02;3.20;;;3.00;;
3997;SDS011;61314;53.444;9.902;2023-07-31T05:05:31;4.67;;;4.30;;
3997;SDS011;61314;53.444;9.902;2023-07-31T05:07:58;3.73;;;3.53;;
3997;SDS011;61314;53.444;9.902;2023-07-31T05:10:25;3.23;;;3.03;;
3997;SDS011;61314;53.444;9.902;2023-07-31T05:12:52;3.40;;;3.20;;
3997;SDS011;61314;53.444;9.902;2023-07-31T05:15:19;4.23;;;3.53;;
3997;SDS011;61314;53.444;9.902;2023-07-31T05:17:46;5.43;;;4.10;;
3997;SDS011;61314;53.444;9.902;2023-07-31T05:20:14;4.40;;;3.97;;
3997;SDS011;61314;53.444;9.902;2023-07-31T05:22:41;4.17;;;3.87;;
3997;SDS011;61314;53.444;9.902;2023-07-31T05:25:08;4.53;;;3.57;;
3997;SDS011;61314;53.444;9.902;2023-07-31T05:27:35;3.90;;;3.70;;
3997;SDS011;61314;53.444;9.902;2023-07-31T05:30:02;4.33;;;4.03;;
3997;SDS011;61314;53.444;9.902;2023-07-31T05:32:29;4.13;;;3.77;;
3997;SDS011;61314;53.444;9.902;2023-07-31T05:34:56;4.13;;;3.90;;
3997;SDS011;61314;53.444;9.902;2023-07-31T05:37:24;4.20;;;3.90;;
3997;SDS011;61314;53.444;9.902;2023-07-31T05:39:51;3.67;;;3.47;;
3997;SDS011;61314;53.444;9.902;2023-07-31T05:42:18;4.63;;;4.30;;
3997;SDS011;61314;53.444;9.902;2023-07-31T05:44:45;3.90;;;3.53;;
3997;SDS011;61314;53.444;9.902;2023-07-31T05:47:13;4.47;;;3.60;;
3997;SDS011;61314;53.444;9.902;2023-07-31T05:49:40;3.17;;;3.07;;
3997;SDS011;61314;53.444;9.902;2023-07-31T05:52:07;3.83;;;3.63;;
3997;SDS011;61314;53.444;9.902;2023-07-31T05:54:34;3.70;;;3.50;;
3997;SDS011;61314;53.444;9.902;2023-07-31T05:57:01;4.00;;;3.70;;
3997;SDS011;61314;53.444;9.902;2023-07-31T05:59:28;3.33;;;3.10;;
3997;SDS011;61314;53.444;9.902;2023-07-31T06:01:57;3.43;;;3.10;;
3997;SDS011;61314;53.444;9.902;2023-07-31T06:04:24;3.67;;;3.37;;
3997;SDS011;61314;53.444;9.902;2023-07-31T06:06:52;3.73;;;3.53;;
3997;SDS011;61314;53.444;9.902;2023-07-31T06:09:19;3.97;;;3.67;;
3997;SDS011;61314;53.444;9.902;2023-07-31T06:11:46;3.60;;;3.30;;
3997;SDS011;61314;53.444;9.902;2023-07-31T06:14:13;3.70;;;3.50;;
3997;SDS011;61314;53.444;9.902;2023-07-31T06:16:43;3.67;;;3.47;;
3997;SDS011;61314;53.444;9.902;2023-07-31T06:19:11;3.80;;;3.60;;
3997;SDS011;61314;53.444;9.902;2023-07-31T06:21:38;3.83;;;3.53;;
3997;SDS011;61314;53.444;9.902;2023-07-31T06:24:08;3.17;;;2.97;;
3997;SDS011;61314;53.444;9.902;2023-07-31T06:26:35;3.47;;;3.20;;
3997;SDS011;61314;53.444;9.902;2023-07-31T06:29:03;3.43;;;3.13;;
3997;SDS011;61314;53.444;9.902;2023-07-31T06:31:30;3.07;;;2.97;;
3997;SDS011;61314;53.444;9.902;2023-07-31T06:33:57;3.50;;;3.03;;
3997;SDS011;61314;53.444;9.902;2023-07-31T06:36:25;3.40;;;3.20;;
3997;SDS011;61314;53.444;9.902;2023-07-31T06:38:52;3.43;;;3.23;;
3997;SDS011;61314;53.444;9.902;2023-07-31T06:41:19;3.60;;;3.40;;
3997;SDS011;61314;53.444;9.902;2023-07-31T06:43:46;3.33;;;3.13;;
3997;SDS011;61314;53.444;9.902;2023-07-31T06:46:13;4.20;;;3.90;;
3997;SDS011;61314;53.444;9.902;2023-07-31T06:48:43;4.90;;;3.37;;
3997;SDS011;61314;53.444;9.902;2023-07-31T06:51:10;3.10;;;2.90;;
3997;SDS011;61314;53.444;9.902;2023-07-31T06:53:37;3.40;;;3.20;;
3997;SDS011;61314;53.444;9.902;2023-07-31T06:56:05;4.07;;;2.93;;
3997;SDS011;61314;53.444;9.902;2023-07-31T06:58:32;2.63;;;2.53;;
3997;SDS011;61314;53.444;9.902;2023-07-31T07:00:59;2.70;;;2.60;;
3997;SDS011;61314;53.444;9.902;2023-07-31T07:03:26;3.07;;;2.87;;
3997;SDS011;61314;53.444;9.902;2023-07-31T07:05:54;3.00;;;2.90;;
3997;SDS011;61314;53.444;9.902;2023-07-31T07:08:21;2.70;;;2.50;;
3997;SDS011;61314;53.444;9.902;2023-07-31T07:10:52;2.30;;;2.20;;
3997;SDS011;61314;53.444;9.902;2023-07-31T07:13:22;2.60;;;2.40;;
3997;SDS011;61314;53.444;9.902;2023-07-31T07:15:50;2.93;;;2.33;;
3997;SDS011;61314;53.444;9.902;2023-07-31T07:18:18;2.40;;;2.30;;
3997;SDS011;61314;53.444;9.902;2023-07-31T07:20:51;2.47;;;2.37;;
3997;SDS011;61314;53.444;9.902;2023-07-31T07:23:19;2.77;;;2.57;;
3997;SDS011;61314;53.444;9.902;2023-07-31T07:25:46;4.70;;;2.37;;
3997;SDS011;61314;53.444;9.902;2023-07-31T07:28:14;1.87;;;1.77;;
3997;SDS011;61314;53.444;9.902;2023-07-31T07:30:41;5.17;;;2.47;;
3997;SDS011;61314;53.444;9.902;2023-07-31T07:33:08;2.37;;;2.27;;
3997;SDS011;61314;53.444;9.902;2023-07-31T07:35:35;2.00;;;1.90;;
3997;SDS011;61314;53.444;9.902;2023-07-31T07:38:03;2.10;;;2.00;;
3997;SDS011;61314;53.444;9.902;2023-07-31T07:40:30;2.20;;;2.00;;
3997;SDS011;61314;53.444;9.902;2023-07-31T07:42:58;1.90;;;1.80;;
3997;SDS011;61314;53.444;9.902;2023-07-31T07:45:26;2.00;;;1.90;;
3997;SDS011;61314;53.444;9.902;2023-07-31T07:47:53;1.67;;;1.57;;
3997;SDS011;61314;53.444;9.902;2023-07-31T07:50:20;2.10;;;1.90;;
3997;SDS011;61314;53.444;9.902;2023-07-31T07:52:48;1.60;;;1.50;;
3997;SDS011;61314;53.444;9.902;2023-07-31T07:55:15;1.30;;;1.20;;
3997;SDS011;61314;53.444;9.902;2023-07-31T07:57:42;2.33;;;1.40;;
3997;SDS011;61314;53.444;9.902;2023-07-31T08:00:12;4.53;;;1.30;;
3997;SDS011;61314;53.444;9.902;2023-07-31T08:02:39;1.40;;;1.30;;
3997;SDS011;61314;53.444;9.902;2023-07-31T08:05:06;1.73;;;1.50;;
3997;SDS011;61314;53.444;9.902;2023-07-31T08:07:33;1.63;;;1.53;;
3997;SDS011;61314;53.444;9.902;2023-07-31T08:10:00;1.50;;;1.40;;
3997;SDS011;61314;53.444;9.902;2023-07-31T08:12:28;1.47;;;1.37;;
3997;SDS011;61314;53.444;9.902;2023-07-31T08:14:55;1.40;;;1.30;;
3997;SDS011;61314;53.444;9.902;2023-07-31T08:17:23;1.40;;;1.30;;
3997;SDS011;61314;53.444;9.902;2023-07-31T08:19:50;1.27;;;1.17;;
3997;SDS011;61314;53.444;9.902;2023-07-31T08:22:17;4.63;;;1.00;;
3997;SDS011;61314;53.444;9.902;2023-07-31T08:24:44;1.30;;;1.20;;
3997;SDS011;61314;53.444;9.902;2023-07-31T08:27:11;1.03;;;0.93;;
3997;SDS011;61314;53.444;9.902;2023-07-31T08:29:38;1.00;;;0.87;;
3997;SDS011;61314;53.444;9.902;2023-07-31T08:32:05;1.47;;;1.37;;
3997;SDS011;61314;53.444;9.902;2023-07-31T08:34:32;1.00;;;0.80;;
3997;SDS011;61314;53.444;9.902;2023-07-31T08:37:00;1.00;;;0.60;;
3997;SDS011;61314;53.444;9.902;2023-07-31T08:39:27;1.00;;;0.80;;
3997;SDS011;61314;53.444;9.902;2023-07-31T08:41:57;1.00;;;0.77;;
3997;SDS011;61314;53.444;9.902;2023-07-31T08:44:25;0.93;;;0.63;;
3997;SDS011;61314;53.444;9.902;2023-07-31T08:46:53;1.00;;;0.70;;
3997;SDS011;61314;53.444;9.902;2023-07-31T08:49:20;1.10;;;0.80;;
3997;SDS011;61314;53.444;9.902;2023-07-31T08:51:49;1.43;;;1.00;;
3997;SDS011;61314;53.444;9.902;2023-07-31T08:54:16;1.20;;;0.77;;
3997;SDS011;61314;53.444;9.902;2023-07-31T08:56:43;0.90;;;0.60;;
3997;SDS011;61314;53.444;9.902;2023-07-31T08:59:11;2.03;;;0.67;;
3997;SDS011;61314;53.444;9.902;2023-07-31T09:01:41;1.53;;;0.70;;
3997;SDS011;61314;53.444;9.902;2023-07-31T09:04:09;2.30;;;0.80;;
3997;SDS011;61314;53.444;9.902;2023-07-31T09:06:37;0.90;;;0.60;;
3997;SDS011;61314;53.444;9.902;2023-07-31T09:09:05;0.90;;;0.63;;
3997;SDS011;61314;53.444;9.902;2023-07-31T09:11:32;2.50;;;0.67;;
3997;SDS011;61314;53.444;9.902;2023-07-31T09:13:59;1.80;;;0.70;;
3997;SDS011;61314;53.444;9.902;2023-07-31T09:16:31;0.93;;;0.60;;
3997;SDS011;61314;53.444;9.902;2023-07-31T09:19:00;0.90;;;0.43;;
3997;SDS011;61314;53.444;9.902;2023-07-31T09:21:29;0.90;;;0.50;;
3997;SDS011;61314;53.444;9.902;2023-07-31T09:23:56;1.00;;;0.47;;
3997;SDS011;61314;53.444;9.902;2023-07-31T09:26:36;1.70;;;0.57;;
3997;SDS011;61314;53.444;9.902;2023-07-31T09:29:05;1.63;;;0.50;;
3997;SDS011;61314;53.444;9.902;2023-07-31T09:31:40;1.00;;;0.50;;
3997;SDS011;61314;53.444;9.902;2023-07-31T09:34:08;1.00;;;0.60;;
3997;SDS011;61314;53.444;9.902;2023-07-31T09:36:39;0.90;;;0.40;;
3997;SDS011;61314;53.444;9.902;2023-07-31T09:39:08;2.67;;;0.70;;
3997;SDS011;61314;53.444;9.902;2023-07-31T09:41:53;1.40;;;0.70;;
3997;SDS011;61314;53.444;9.902;2023-07-31T09:44:21;1.00;;;0.40;;
3997;SDS011;61314;53.444;9.902;2023-07-31T09:46:48;1.07;;;0.60;;
3997;SDS011;61314;53.444;9.902;2023-07-31T09:49:15;3.87;;;0.70;;
3997;SDS011;61314;53.444;9.902;2023-07-31T09:51:43;1.50;;;0.60;;
3997;SDS011;61314;53.444;9.902;2023-07-31T09:56:47;4.23;;;0.70;;
3997;SDS011;61314;53.444;9.902;2023-07-31T09:59:15;1.93;;;1.00;;
3997;SDS011;61314;53.444;9.902;2023-07-31T10:01:47;6.10;;;2.50;;
3997;SDS011;61314;53.444;9.902;2023-07-31T10:04:14;7.23;;;3.83;;
3997;SDS011;61314;53.444;9.902;2023-07-31T10:06:42;8.70;;;6.30;;
3997;SDS011;61314;53.444;9.902;2023-07-31T10:09:11;16.60;;;8.80;;
3997;SDS011;61314;53.444;9.902;2023-07-31T10:11:41;14.00;;;8.80;;
3997;SDS011;61314;53.444;9.902;2023-07-31T10:14:10;12.80;;;9.20;;
3997;SDS011;61314;53.444;9.902;2023-07-31T10:16:38;16.30;;;8.77;;
3997;SDS011;61314;53.444;9.902;2023-07-31T10:19:07;15.90;;;9.07;;
3997;SDS011;61314;53.444;9.902;2023-07-31T10:21:36;15.50;;;9.50;;
3997;SDS011;61314;53.444;9.902;2023-07-31T10:24:04;18.93;;;8.20;;
3997;SDS011;61314;53.444;9.902;2023-07-31T10:26:31;17.00;;;8.93;;
3997;SDS011;61314;53.444;9.902;2023-07-31T10:29:00;19.63;;;8.97;;
3997;SDS011;61314;53.444;9.902;2023-07-31T10:31:27;16.00;;;10.40;;
3997;SDS011;61314;53.444;9.902;2023-07-31T10:33:55;21.93;;;10.60;;
3997;SDS011;61314;53.444;9.902;2023-07-31T10:36:24;20.87;;;10.80;;
3997;SDS011;61314;53.444;9.902;2023-07-31T10:38:51;33.30;;;10.90;;
3997;SDS011;61314;53.444;9.902;2023-07-31T10:41:19;19.63;;;10.77;;
3997;SDS011;61314;53.444;9.902;2023-07-31T10:43:46;14.60;;;10.50;;
3997;SDS011;61314;53.444;9.902;2023-07-31T10:46:14;21.13;;;11.40;;
3997;SDS011;61314;53.444;9.902;2023-07-31T10:48:41;14.47;;;9.30;;
3997;SDS011;61314;53.444;9.902;2023-07-31T10:51:09;12.13;;;9.57;;
3997;SDS011;61314;53.444;9.902;2023-07-31T10:53:36;14.30;;;8.30;;
3997;SDS011;61314;53.444;9.902;2023-07-31T10:56:04;10.73;;;7.30;;
3997;SDS011;61314;53.444;9.902;2023-07-31T10:58:32;14.33;;;8.40;;
3997;SDS011;61314;53.444;9.902;2023-07-31T11:01:00;11.73;;;7.83;;
3997;SDS011;61314;53.444;9.902;2023-07-31T11:06:13;11.93;;;6.77;;
3997;SDS011;61314;53.444;9.902;2023-07-31T11:08:45;7.93;;;6.47;;
3997;SDS011;61314;53.444;9.902;2023-07-31T11:11:14;8.90;;;6.20;;
3997;SDS011;61314;53.444;9.902;2023-07-31T11:13:49;8.63;;;4.70;;
3997;SDS011;61314;53.444;9.902;2023-07-31T11:16:17;8.47;;;5.53;;
3997;SDS011;61314;53.444;9.902;2023-07-31T11:18:45;5.57;;;4.50;;
3997;SDS011;61314;53.444;9.902;2023-07-31T11:21:13;5.20;;;4.70;;
3997;SDS011;61314;53.444;9.902;2023-07-31T11:23:41;7.83;;;4.70;;
3997;SDS011;61314;53.444;9.902;2023-07-31T11:26:08;4.37;;;3.63;;
3997;SDS011;61314;53.444;9.902;2023-07-31T11:28:35;4.50;;;4.10;;
3997;SDS011;61314;53.444;9.902;2023-07-31T11:31:03;5.50;;;4.33;;
3997;SDS011;61314;53.444;9.902;2023-07-31T11:33:30;5.00;;;3.73;;
3997;SDS011;61314;53.444;9.902;2023-07-31T11:35:57;3.80;;;3.30;;
3997;SDS011;61314;53.444;9.902;2023-07-31T11:38:29;4.30;;;3.40;;
3997;SDS011;61314;53.444;9.902;2023-07-31T11:41:03;3.00;;;2.80;;
3997;SDS011;61314;53.444;9.902;2023-07-31T11:43:30;7.93;;;2.87;;
3997;SDS011;61314;53.444;9.902;2023-07-31T11:45:59;3.10;;;2.90;;
3997;SDS011;61314;53.444;9.902;2023-07-31T11:48:30;3.23;;;2.93;;
3997;SDS011;61314;53.444;9.902;2023-07-31T11:51:00;3.67;;;3.10;;
3997;SDS011;61314;53.444;9.902;2023-07-31T11:56:24;2.80;;;2.60;;
3997;SDS011;61314;53.444;9.902;2023-07-31T11:58:55;4.90;;;2.70;;
3997;SDS011;61314;53.444;9.902;2023-07-31T12:01:24;2.67;;;2.50;;
3997;SDS011;61314;53.444;9.902;2023-07-31T12:03:51;3.23;;;1.87;;
3997;SDS011;61314;53.444;9.902;2023-07-31T12:06:19;2.67;;;2.33;;
3997;SDS011;61314;53.444;9.902;2023-07-31T12:08:49;2.10;;;2.00;;
3997;SDS011;61314;53.444;9.902;2023-07-31T12:11:16;1.70;;;1.60;;
3997;SDS011;61314;53.444;9.902;2023-07-31T12:13:44;2.57;;;1.80;;
3997;SDS011;61314;53.444;9.902;2023-07-31T12:16:11;2.03;;;1.73;;
3997;SDS011;61314;53.444;9.902;2023-07-31T12:18:38;1.40;;;1.30;;
3997;SDS011;61314;53.444;9.902;2023-07-31T12:21:06;3.10;;;1.70;;
3997;SDS011;61314;53.444;9.902;2023-07-31T12:23:35;1.50;;;1.40;;
3997;SDS011;61314;53.444;9.902;2023-07-31T12:26:03;1.97;;;1.60;;
3997;SDS011;61314;53.444;9.902;2023-07-31T12:28:30;1.50;;;1.40;;
3997;SDS011;61314;53.444;9.902;2023-07-31T12:30:58;1.50;;;1.40;;
3997;SDS011;61314;53.444;9.902;2023-07-31T12:33:33;1.20;;;1.03;;
3997;SDS011;61314;53.444;9.902;2023-07-31T12:36:03;1.40;;;1.30;;
3997;SDS011;61314;53.444;9.902;2023-07-31T12:38:31;1.37;;;1.27;;
3997;SDS011;61314;53.444;9.902;2023-07-31T12:40:58;2.17;;;1.30;;
3997;SDS011;61314;53.444;9.902;2023-07-31T12:43:25;1.20;;;1.10;;
3997;SDS011;61314;53.444;9.902;2023-07-31T12:45:53;1.40;;;1.30;;
3997;SDS011;61314;53.444;9.902;2023-07-31T12:48:22;1.10;;;1.00;;
3997;SDS011;61314;53.444;9.902;2023-07-31T12:50:49;1.40;;;0.97;;
3997;SDS011;61314;53.444;9.902;2023-07-31T12:53:16;1.70;;;0.90;;
3997;SDS011;61314;53.444;9.902;2023-07-31T12:55:43;2.80;;;1.30;;
3997;SDS011;61314;53.444;9.902;2023-07-31T12:58:10;1.03;;;0.93;;
3997;SDS011;61314;53.444;9.902;2023-07-31T13:00:37;1.53;;;1.10;;
3997;SDS011;61314;53.444;9.902;2023-07-31T13:03:04;1.37;;;0.90;;
3997;SDS011;61314;53.444;9.902;2023-07-31T13:05:32;2.17;;;1.00;;
3997;SDS011;61314;53.444;9.902;2023-07-31T13:07:59;1.30;;;1.20;;
3997;SDS011;61314;53.444;9.902;2023-07-31T13:10:26;1.10;;;1.00;;
3997;SDS011;61314;53.444;9.902;2023-07-31T13:12:54;1.13;;;1.00;;
3997;SDS011;61314;53.444;9.902;2023-07-31T13:15:22;1.30;;;1.00;;
3997;SDS011;61314;53.444;9.902;2023-07-31T13:17:50;1.00;;;0.70;;
3997;SDS011;61314;53.444;9.902;2023-07-31T13:20:18;1.30;;;0.93;;
3997;SDS011;61314;53.444;9.902;2023-07-31T13:22:45;1.10;;;0.80;;
3997;SDS011;61314;53.444;9.902;2023-07-31T13:25:12;1.10;;;0.80;;
3997;SDS011;61314;53.444;9.902;2023-07-31T13:27:39;1.27;;;0.90;;
3997;SDS011;61314;53.444;9.902;2023-07-31T13:30:06;1.00;;;0.80;;
3997;SDS011;61314;53.444;9.902;2023-07-31T13:32:34;1.00;;;0.70;;
3997;SDS011;61314;53.444;9.902;2023-07-31T13:35:05;1.60;;;0.97;;
3997;SDS011;61314;53.444;9.902;2023-07-31T13:37:33;1.00;;;0.80;;
3997;SDS011;61314;53.444;9.902;2023-07-31T13:40:01;1.23;;;0.70;;
3997;SDS011;61314;53.444;9.902;2023-07-31T13:42:31;0.90;;;0.60;;
3997;SDS011;61314;53.444;9.902;2023-07-31T13:44:58;1.40;;;1.13;;
3997;SDS011;61314;53.444;9.902;2023-07-31T13:47:25;1.20;;;0.80;;
3997;SDS011;61314;53.444;9.902;2023-07-31T13:49:52;1.57;;;0.80;;
3997;SDS011;61314;53.444;9.902;2023-07-31T13:52:19;1.10;;;1.00;;
3997;SDS011;61314;53.444;9.902;2023-07-31T13:54:46;2.37;;;0.70;;
3997;SDS011;61314;53.444;9.902;2023-07-31T13:57:13;1.20;;;0.70;;
3997;SDS011;61314;53.444;9.902;2023-07-31T13:59:40;1.60;;;1.00;;
3997;SDS011;61314;53.444;9.902;2023-07-31T14:02:07;1.00;;;0.80;;
3997;SDS011;61314;53.444;9.902;2023-07-31T14:04:34;0.97;;;0.77;;
3997;SDS011;61314;53.444;9.902;2023-07-31T14:07:01;1.57;;;1.27;;
3997;SDS011;61314;53.444;9.902;2023-07-31T14:09:29;2.23;;;0.80;;
3997;SDS011;61314;53.444;9.902;2023-07-31T14:11:56;0.97;;;0.63;;
3997;SDS011;61314;53.444;9.902;2023-07-31T14:14:23;1.20;;;0.70;;
3997;SDS011;61314;53.444;9.902;2023-07-31T14:16:50;0.90;;;0.60;;
3997;SDS011;61314;53.444;9.902;2023-07-31T14:19:18;2.40;;;1.10;;
3997;SDS011;61314;53.444;9.902;2023-07-31T14:21:45;0.90;;;0.57;;
3997;SDS011;61314;53.444;9.902;2023-07-31T14:24:31;1.17;;;0.70;;
3997;SDS011;61314;53.444;9.902;2023-07-31T14:26:58;1.00;;;0.80;;
3997;SDS011;61314;53.444;9.902;2023-07-31T14:29:25;1.10;;;0.90;;
3997;SDS011;61314;53.444;9.902;2023-07-31T14:31:52;1.10;;;1.00;;
3997;SDS011;61314;53.444;9.902;2023-07-31T14:34:19;2.23;;;1.00;;
3997;SDS011;61314;53.444;9.902;2023-07-31T14:36:46;2.00;;;0.90;;
3997;SDS011;61314;53.444;9.902;2023-07-31T14:39:14;1.97;;;1.40;;
3997;SDS011;61314;53.444;9.902;2023-07-31T14:41:41;1.40;;;1.30;;
3997;SDS011;61314;53.444;9.902;2023-07-31T14:44:08;1.93;;;1.50;;
3997;SDS011;61314;53.444;9.902;2023-07-31T14:46:35;3.20;;;1.70;;
3997;SDS011;61314;53.444;9.902;2023-07-31T14:49:03;3.20;;;2.00;;
3997;SDS011;61314;53.444;9.902;2023-07-31T14:51:30;2.30;;;2.10;;
3997;SDS011;61314;53.444;9.902;2023-07-31T14:53:57;1.63;;;1.53;;
3997;SDS011;61314;53.444;9.902;2023-07-31T14:56:24;1.60;;;1.50;;
3997;SDS011;61314;53.444;9.902;2023-07-31T14:58:52;1.80;;;1.67;;
3997;SDS011;61314;53.444;9.902;2023-07-31T15:01:19;2.03;;;1.93;;
3997;SDS011;61314;53.444;9.902;2023-07-31T15:03:47;2.17;;;1.93;;
3997;SDS011;61314;53.444;9.902;2023-07-31T15:06:14;2.00;;;1.90;;
3997;SDS011;61314;53.444;9.902;2023-07-31T15:08:41;1.80;;;1.70;;
3997;SDS011;61314;53.444;9.902;2023-07-31T15:11:09;2.50;;;2.40;;